createdAt,value
2017-05-24T00:01:12.670Z,16.70
2017-05-24T00:03:39.362Z,16.70
2017-05-24T00:06:06.053Z,16.70
2017-05-24T00:08:32.769Z,16.70
2017-05-24T00:10:59.453Z,16.60
2017-05-24T00:13:26.182Z,16.60
2017-05-24T00:15:52.871Z,16.60
2017-05-24T00:18:19.565Z,16.50
2017-05-24T00:20:46.285Z,16.50
2017-05-24T00:23:13.029Z,16.40
2017-05-24T00:25:39.768Z,16.40
2017-05-24T00:28:06.469Z,16.40
2017-05-24T00:30:33.170Z,16.30
2017-05-24T00:32:59.898Z,16.30
2017-05-24T00:35:26.581Z,16.20
2017-05-24T00:37:53.266Z,16.20
2017-05-24T00:40:19.996Z,16.20
2017-05-24T00:42:46.702Z,16.20
2017-05-24T00:45:13.441Z,16.10
2017-05-24T00:47:40.138Z,16.10
2017-05-24T00:50:06.869Z,16.00
2017-05-24T00:52:33.558Z,16.10
2017-05-24T00:55:00.253Z,16.00
2017-05-24T00:57:26.989Z,16.00
2017-05-24T00:59:53.677Z,15.90
2017-05-24T01:02:20.367Z,15.90
2017-05-24T01:04:47.122Z,15.80
2017-05-24T01:07:13.834Z,15.70
2017-05-24T01:09:40.524Z,15.60
2017-05-24T01:12:07.249Z,15.60
2017-05-24T01:14:33.977Z,15.50
2017-05-24T01:17:00.945Z,15.40
2017-05-24T01:19:27.653Z,15.40
2017-05-24T01:21:54.381Z,15.40
2017-05-24T01:24:21.107Z,15.30
2017-05-24T01:26:47.805Z,15.30
2017-05-24T01:29:14.529Z,15.20
2017-05-24T01:31:41.230Z,15.10
2017-05-24T01:34:07.961Z,14.90
2017-05-24T01:36:34.639Z,14.90
2017-05-24T01:39:01.325Z,14.80
2017-05-24T01:41:28.039Z,14.80
2017-05-24T01:43:54.734Z,14.70
2017-05-24T01:46:21.465Z,14.60
2017-05-24T01:48:48.166Z,14.60
2017-05-24T01:51:14.869Z,14.50
2017-05-24T01:53:41.635Z,14.50
2017-05-24T01:56:08.330Z,14.40
2017-05-24T01:58:35.059Z,14.40
2017-05-24T02:01:01.750Z,14.30
2017-05-24T02:03:28.476Z,14.30
2017-05-24T02:05:55.213Z,14.30
2017-05-24T02:08:21.901Z,14.30
2017-05-24T02:10:48.581Z,14.30
2017-05-24T02:13:15.323Z,14.20
2017-05-24T02:15:42.051Z,14.20
2017-05-24T02:18:08.742Z,14.20
2017-05-24T02:20:35.504Z,14.10
2017-05-24T02:23:02.264Z,14.10
2017-05-24T02:25:28.994Z,14.00
2017-05-24T02:27:55.683Z,14.00
2017-05-24T02:30:22.387Z,13.90
2017-05-24T02:32:49.126Z,13.90
2017-05-24T02:35:15.835Z,13.80
2017-05-24T02:37:42.558Z,13.70
2017-05-24T02:40:09.286Z,13.60
2017-05-24T02:42:36.005Z,13.60
2017-05-24T02:45:02.682Z,13.50
2017-05-24T02:47:29.427Z,13.40
2017-05-24T02:49:56.126Z,13.40
2017-05-24T02:52:22.822Z,13.30
2017-05-24T02:54:49.554Z,13.40
2017-05-24T02:57:16.290Z,13.40
2017-05-24T02:59:43.020Z,13.30
2017-05-24T03:02:09.746Z,13.30
2017-05-24T03:04:36.478Z,13.30
2017-05-24T03:07:03.173Z,13.20
2017-05-24T03:09:29.882Z,13.20
2017-05-24T03:11:56.644Z,13.30
2017-05-24T03:14:23.348Z,13.30
2017-05-24T03:16:50.038Z,13.20
2017-05-24T03:19:16.791Z,13.20
2017-05-24T03:21:43.506Z,13.20
2017-05-24T03:24:10.206Z,13.20
2017-05-24T03:26:36.933Z,13.20
2017-05-24T03:29:03.674Z,13.20
2017-05-24T03:31:30.362Z,13.20
2017-05-24T03:33:57.110Z,13.20
2017-05-24T03:36:23.793Z,13.20
2017-05-24T03:38:50.474Z,13.10
2017-05-24T03:41:17.215Z,13.10
2017-05-24T03:43:43.931Z,13.00
2017-05-24T03:46:10.682Z,13.10
2017-05-24T03:48:37.409Z,13.10
2017-05-24T03:51:04.114Z,13.10
2017-05-24T03:53:30.801Z,13.10
2017-05-24T03:55:57.554Z,13.10
2017-05-24T03:58:24.250Z,13.00
2017-05-24T04:00:50.938Z,13.00
2017-05-24T04:03:17.686Z,13.00
2017-05-24T04:05:44.454Z,13.00
2017-05-24T04:08:11.168Z,12.90
2017-05-24T04:10:37.870Z,12.90
2017-05-24T04:13:04.631Z,12.90
2017-05-24T04:15:31.318Z,12.90
2017-05-24T04:17:58.015Z,12.90
2017-05-24T04:20:24.762Z,12.80
2017-05-24T04:22:51.450Z,12.90
2017-05-24T04:25:25.098Z,12.80
2017-05-24T04:27:51.858Z,12.90
2017-05-24T04:30:18.554Z,12.80
2017-05-24T04:32:45.245Z,12.80
2017-05-24T04:35:11.974Z,12.80
2017-05-24T04:37:38.698Z,12.80
2017-05-24T04:40:05.394Z,12.70
2017-05-24T04:42:32.121Z,12.70
2017-05-24T04:44:58.867Z,12.70
2017-05-24T04:47:25.591Z,12.70
2017-05-24T04:49:52.339Z,12.70
2017-05-24T04:52:19.066Z,12.70
2017-05-24T04:54:45.762Z,12.70
2017-05-24T04:57:12.494Z,12.70
2017-05-24T04:59:39.197Z,12.80
2017-05-24T05:02:05.894Z,12.80
2017-05-24T05:04:32.637Z,12.80
2017-05-24T05:06:59.327Z,12.80
2017-05-24T05:09:26.037Z,12.80
2017-05-24T05:11:52.802Z,12.80
2017-05-24T05:14:19.494Z,12.80
2017-05-24T05:16:46.219Z,12.70
2017-05-24T05:19:12.911Z,12.80
2017-05-24T05:21:39.649Z,12.80
2017-05-24T05:24:06.337Z,12.80
2017-05-24T05:26:33.025Z,12.70
2017-05-24T05:28:59.753Z,12.80
2017-05-24T05:31:33.571Z,12.80
2017-05-24T05:34:00.310Z,12.80
2017-05-24T05:36:27.014Z,12.80
2017-05-24T05:38:53.722Z,12.80
2017-05-24T05:41:20.474Z,12.80
2017-05-24T05:43:47.214Z,12.80
2017-05-24T05:46:13.937Z,12.80
2017-05-24T05:48:40.622Z,12.80
2017-05-24T05:51:07.354Z,12.80
2017-05-24T05:53:34.039Z,12.80
2017-05-24T05:56:00.734Z,12.80
2017-05-24T05:58:27.465Z,12.80
2017-05-24T06:00:54.186Z,12.90
2017-05-24T06:03:20.930Z,12.90
2017-05-24T06:05:47.621Z,12.90
2017-05-24T06:08:14.309Z,13.00
2017-05-24T06:10:41.051Z,13.00
2017-05-24T06:13:07.742Z,12.90
2017-05-24T06:15:34.434Z,13.00
2017-05-24T06:18:01.162Z,12.90
2017-05-24T06:20:27.863Z,12.90
2017-05-24T06:22:54.582Z,12.90
2017-05-24T06:25:21.334Z,12.90
2017-05-24T06:27:48.031Z,12.90
2017-05-24T06:30:14.723Z,12.90
2017-05-24T06:32:41.465Z,13.00
2017-05-24T06:35:08.158Z,13.00
2017-05-24T06:37:34.887Z,12.90
2017-05-24T06:40:01.630Z,12.90
2017-05-24T06:42:28.322Z,12.90
2017-05-24T06:44:55.017Z,12.80
2017-05-24T06:47:21.778Z,12.80
2017-05-24T06:49:48.494Z,12.80
2017-05-24T06:52:15.179Z,13.00
2017-05-24T06:54:41.917Z,13.10
2017-05-24T06:57:08.609Z,13.20
2017-05-24T06:59:35.328Z,13.40
2017-05-24T07:02:02.083Z,13.40
2017-05-24T07:04:28.790Z,13.40
2017-05-24T07:06:55.490Z,13.40
2017-05-24T07:09:22.250Z,13.40
2017-05-24T07:11:48.983Z,13.50
2017-05-24T07:14:15.683Z,13.50
2017-05-24T07:16:42.374Z,13.60
2017-05-24T07:19:09.101Z,13.60
2017-05-24T07:21:35.795Z,13.50
2017-05-24T07:24:02.507Z,13.40
2017-05-24T07:26:29.197Z,13.40
2017-05-24T07:28:55.935Z,13.30
2017-05-24T07:31:22.645Z,13.30
2017-05-24T07:33:49.382Z,13.30
2017-05-24T07:36:16.073Z,13.30
2017-05-24T07:38:42.761Z,13.30
2017-05-24T07:41:09.486Z,13.30
2017-05-24T07:43:36.211Z,13.30
2017-05-24T07:46:02.942Z,13.40
2017-05-24T07:48:29.634Z,13.40
2017-05-24T07:50:56.350Z,13.40
2017-05-24T07:53:23.127Z,13.40
2017-05-24T07:55:49.821Z,13.40
2017-05-24T07:58:16.546Z,13.40
2017-05-24T08:00:43.273Z,13.50
2017-05-24T08:03:09.956Z,13.60
2017-05-24T08:05:36.650Z,13.70
2017-05-24T08:08:03.402Z,13.80
2017-05-24T08:10:30.098Z,13.80
2017-05-24T08:12:56.798Z,13.80
2017-05-24T08:15:23.558Z,13.80
2017-05-24T08:17:50.254Z,13.80
2017-05-24T08:20:16.959Z,13.80
2017-05-24T08:22:43.697Z,13.80
2017-05-24T08:25:10.434Z,14.00
2017-05-24T08:27:37.125Z,14.10
2017-05-24T08:30:03.846Z,14.20
2017-05-24T08:32:30.614Z,14.20
2017-05-24T08:34:57.322Z,14.10
2017-05-24T08:37:24.010Z,14.10
2017-05-24T08:39:50.746Z,14.00
2017-05-24T08:42:17.438Z,14.10
2017-05-24T08:44:44.170Z,14.00
2017-05-24T08:47:10.862Z,14.00
2017-05-24T08:49:37.550Z,14.20
2017-05-24T08:52:04.358Z,14.20
2017-05-24T08:54:31.104Z,14.20
2017-05-24T08:56:57.830Z,14.30
2017-05-24T08:59:24.552Z,14.30
2017-05-24T09:01:51.295Z,14.40
2017-05-24T09:04:17.985Z,14.60
2017-05-24T09:06:44.682Z,14.70
2017-05-24T09:09:11.455Z,14.80
2017-05-24T09:11:38.159Z,15.00
2017-05-24T09:14:04.858Z,15.10
2017-05-24T09:16:31.601Z,15.10
2017-05-24T09:18:58.337Z,15.00
2017-05-24T09:21:25.027Z,15.00
2017-05-24T09:23:51.764Z,15.10
2017-05-24T09:26:18.446Z,15.20
2017-05-24T09:28:45.142Z,15.30
2017-05-24T09:31:11.887Z,15.30
2017-05-24T09:33:45.642Z,15.20
2017-05-24T09:36:12.374Z,15.10
2017-05-24T09:38:39.066Z,15.10
2017-05-24T09:41:05.771Z,15.10
2017-05-24T09:43:32.532Z,15.10
2017-05-24T09:45:59.251Z,15.30
2017-05-24T09:48:25.938Z,15.50
2017-05-24T09:50:52.663Z,15.60
2017-05-24T09:53:19.367Z,15.60
2017-05-24T09:55:46.106Z,15.70
2017-05-24T09:58:12.798Z,15.80
2017-05-24T10:00:39.486Z,15.80
2017-05-24T10:03:06.257Z,15.80
2017-05-24T10:05:32.950Z,15.80
2017-05-24T10:07:59.666Z,15.80
2017-05-24T10:10:26.410Z,15.70
2017-05-24T10:12:53.101Z,15.70
2017-05-24T10:15:19.829Z,15.60
2017-05-24T10:17:46.506Z,15.60
2017-05-24T10:20:13.247Z,15.70
2017-05-24T10:22:39.941Z,15.70
2017-05-24T10:25:06.629Z,15.80
2017-05-24T10:27:33.354Z,15.90
2017-05-24T10:30:00.047Z,16.00
2017-05-24T10:32:26.802Z,16.00
2017-05-24T10:34:53.502Z,16.00
2017-05-24T10:37:20.246Z,15.90
2017-05-24T10:39:46.974Z,15.80
2017-05-24T10:42:34.578Z,15.80
2017-05-24T10:45:01.342Z,15.90
2017-05-24T10:47:28.048Z,15.90
2017-05-24T10:49:54.791Z,16.00
2017-05-24T10:52:21.522Z,16.10
2017-05-24T10:54:48.214Z,16.20
2017-05-24T10:57:14.977Z,16.30
2017-05-24T10:59:41.666Z,16.20
2017-05-24T11:02:08.371Z,16.20
2017-05-24T11:04:35.098Z,16.10
2017-05-24T11:07:01.781Z,16.10
2017-05-24T11:09:28.528Z,16.20
2017-05-24T11:11:55.261Z,16.50
2017-05-24T11:14:21.990Z,16.60
2017-05-24T11:16:48.735Z,16.70
2017-05-24T11:19:15.435Z,16.60
2017-05-24T11:21:42.154Z,16.70
2017-05-24T11:24:08.855Z,16.70
2017-05-24T11:26:35.602Z,16.80
2017-05-24T11:29:02.342Z,17.00
2017-05-24T11:31:29.034Z,17.00
2017-05-24T11:33:55.730Z,17.00
2017-05-24T11:36:22.470Z,17.00
2017-05-24T11:38:49.235Z,17.00
2017-05-24T11:41:15.958Z,16.90
2017-05-24T11:43:42.675Z,16.90
2017-05-24T11:46:09.441Z,16.90
2017-05-24T11:48:36.143Z,16.90
2017-05-24T11:51:02.863Z,17.00
2017-05-24T11:53:29.614Z,17.00
2017-05-24T11:55:56.340Z,17.00
2017-05-24T11:58:23.144Z,17.00
2017-05-24T12:00:49.939Z,17.10
2017-05-24T12:03:16.633Z,17.30
2017-05-24T12:05:43.319Z,17.50
2017-05-24T12:08:10.034Z,17.60
2017-05-24T12:10:36.722Z,17.70
2017-05-24T12:13:03.443Z,17.70
2017-05-24T12:15:30.137Z,17.70
2017-05-24T12:17:56.858Z,17.60
2017-05-24T12:20:23.607Z,17.60
2017-05-24T12:22:50.310Z,18.30
2017-05-24T12:25:17.046Z,19.40
2017-05-24T12:27:43.746Z,21.00
2017-05-24T12:30:10.434Z,21.50
2017-05-24T12:32:37.171Z,21.10
2017-05-24T12:35:03.863Z,20.50
2017-05-24T12:37:30.555Z,20.30
2017-05-24T12:39:57.284Z,20.90
2017-05-24T12:42:23.984Z,21.00
2017-05-24T12:44:50.759Z,21.30
2017-05-24T12:47:17.449Z,21.80
2017-05-24T12:49:44.174Z,22.30
2017-05-24T12:52:10.939Z,22.30
2017-05-24T12:54:37.635Z,21.60
2017-05-24T12:57:04.335Z,20.70
2017-05-24T12:59:31.062Z,20.20
2017-05-24T13:01:57.807Z,20.70
2017-05-24T13:04:23.774Z,20.70
2017-05-24T13:06:50.483Z,20.10
2017-05-24T13:09:17.229Z,19.60
2017-05-24T13:11:43.922Z,19.50
2017-05-24T13:14:10.646Z,19.40
2017-05-24T13:16:37.376Z,19.80
2017-05-24T13:19:04.075Z,20.60
2017-05-24T13:21:30.786Z,21.10
2017-05-24T13:23:57.479Z,21.50
2017-05-24T13:26:24.283Z,21.20
2017-05-24T13:28:51.080Z,20.80
2017-05-24T13:31:17.786Z,21.50
2017-05-24T13:33:44.511Z,21.90
2017-05-24T13:36:11.207Z,22.10
2017-05-24T13:38:37.897Z,22.20
2017-05-24T13:41:04.635Z,22.90
2017-05-24T13:43:31.346Z,23.90
2017-05-24T13:45:58.060Z,23.60
2017-05-24T13:48:24.830Z,22.90
2017-05-24T13:50:51.706Z,23.60
2017-05-24T13:53:18.406Z,24.40
2017-05-24T13:55:45.153Z,23.90
2017-05-24T13:58:12.083Z,22.90
2017-05-24T14:00:38.769Z,22.60
2017-05-24T14:03:05.512Z,23.00
2017-05-24T14:05:32.246Z,22.80
2017-05-24T14:07:58.952Z,22.60
2017-05-24T14:10:25.686Z,23.50
2017-05-24T14:12:52.785Z,24.10
2017-05-24T14:15:19.481Z,24.80
2017-05-24T14:17:46.171Z,24.70
2017-05-24T14:20:12.916Z,24.10
2017-05-24T14:22:46.574Z,23.40
2017-05-24T14:25:13.319Z,22.20
2017-05-24T14:27:40.011Z,21.30
2017-05-24T14:30:06.705Z,22.10
2017-05-24T14:32:33.434Z,22.40
2017-05-24T14:35:00.146Z,22.50
2017-05-24T14:37:26.833Z,23.30
2017-05-24T14:39:53.599Z,24.00
2017-05-24T14:42:20.316Z,23.90
2017-05-24T14:44:47.007Z,23.70
2017-05-24T14:47:13.733Z,23.30
2017-05-24T14:49:40.431Z,22.60
2017-05-24T14:52:07.161Z,21.80
2017-05-24T14:54:33.854Z,21.10
2017-05-24T14:57:00.543Z,20.50
2017-05-24T14:59:27.306Z,19.90
2017-05-24T15:01:54.095Z,19.50
2017-05-24T15:04:20.786Z,19.20
2017-05-24T15:06:47.530Z,19.10
2017-05-24T15:09:14.218Z,19.00
2017-05-24T15:11:40.910Z,18.80
2017-05-24T15:14:07.618Z,18.70
2017-05-24T15:16:34.304Z,18.60
2017-05-24T15:19:01.039Z,18.60
2017-05-24T15:21:27.730Z,18.60
2017-05-24T15:23:54.442Z,18.90
2017-05-24T15:26:21.242Z,18.90
2017-05-24T15:28:47.966Z,19.00
2017-05-24T15:31:14.722Z,19.10
2017-05-24T15:33:41.412Z,19.10
2017-05-24T15:36:08.172Z,19.30
2017-05-24T15:38:34.857Z,19.30
2017-05-24T15:41:01.549Z,19.10
2017-05-24T15:43:28.265Z,18.90
2017-05-24T15:45:54.973Z,18.90
2017-05-24T15:48:21.678Z,18.80
2017-05-24T15:50:48.441Z,18.80
2017-05-24T15:53:15.130Z,18.90
2017-05-24T15:55:41.866Z,18.80
2017-05-24T15:58:08.564Z,18.60
2017-05-24T16:00:35.251Z,18.50
2017-05-24T16:03:01.982Z,18.40
2017-05-24T16:05:28.666Z,18.20
2017-05-24T16:07:55.374Z,18.10
2017-05-24T16:10:22.115Z,18.10
2017-05-24T16:12:48.865Z,18.00
2017-05-24T16:15:15.560Z,17.80
2017-05-24T16:17:42.315Z,17.70
2017-05-24T16:20:09.033Z,17.70
2017-05-24T16:22:35.722Z,17.60
2017-05-24T16:25:02.459Z,17.50
2017-05-24T16:27:29.161Z,17.50
2017-05-24T16:29:55.874Z,17.30
2017-05-24T16:32:22.989Z,17.20
2017-05-24T16:34:49.753Z,17.20
2017-05-24T16:37:16.443Z,17.30
2017-05-24T16:39:43.178Z,17.40
2017-05-24T16:42:09.912Z,17.60
2017-05-24T16:44:36.596Z,17.70
2017-05-24T16:47:03.318Z,17.80
2017-05-24T16:49:30.011Z,17.80
2017-05-24T16:51:56.773Z,17.70
2017-05-24T16:54:23.510Z,17.60
2017-05-24T16:56:50.422Z,17.50
2017-05-24T16:59:17.131Z,17.50
2017-05-24T17:01:43.818Z,17.40
2017-05-24T17:04:17.423Z,17.30
2017-05-24T17:06:44.114Z,17.30
2017-05-24T17:09:10.805Z,17.20
2017-05-24T17:11:37.561Z,17.20
2017-05-24T17:14:11.346Z,17.10
2017-05-24T17:16:38.078Z,17.00
2017-05-24T17:19:04.788Z,16.90
2017-05-24T17:21:31.510Z,17.00
2017-05-24T17:23:58.239Z,17.00
2017-05-24T17:26:24.930Z,17.10
2017-05-24T17:28:51.685Z,17.10
2017-05-24T17:31:18.372Z,17.20
2017-05-24T17:33:52.084Z,17.20
2017-05-24T17:36:18.785Z,17.10
2017-05-24T17:38:45.505Z,17.10
2017-05-24T17:41:12.238Z,17.10
2017-05-24T17:43:38.930Z,17.10
2017-05-24T17:46:05.654Z,17.10
2017-05-24T17:48:32.383Z,17.10
2017-05-24T17:50:59.126Z,17.10
2017-05-24T17:53:25.930Z,17.00
2017-05-24T17:55:52.793Z,16.90
2017-05-24T17:58:19.531Z,16.80
2017-05-24T18:00:46.267Z,16.80
2017-05-24T18:03:13.086Z,16.80
2017-05-24T18:05:39.779Z,16.80
2017-05-24T18:08:06.504Z,16.80
2017-05-24T18:10:33.194Z,16.60
2017-05-24T18:12:59.934Z,16.00
2017-05-24T18:15:26.646Z,15.30
2017-05-24T18:17:53.416Z,14.70
2017-05-24T18:20:20.154Z,14.50
2017-05-24T18:22:46.862Z,14.30
2017-05-24T18:25:13.614Z,14.20
2017-05-24T18:27:40.303Z,14.10
2017-05-24T18:30:06.989Z,14.00
2017-05-24T18:32:33.695Z,13.90
2017-05-24T18:35:00.374Z,13.90
2017-05-24T18:37:27.119Z,13.90
2017-05-24T18:39:53.830Z,13.90
2017-05-24T18:42:20.550Z,13.90
2017-05-24T18:44:47.271Z,14.00
2017-05-24T18:47:13.994Z,14.00
2017-05-24T18:49:40.682Z,13.80
2017-05-24T18:52:07.397Z,13.80
2017-05-24T18:54:34.143Z,13.80
2017-05-24T18:57:00.981Z,13.80
2017-05-24T18:59:27.683Z,13.70
2017-05-24T19:01:54.495Z,13.70
2017-05-24T19:04:21.234Z,13.70
2017-05-24T19:06:48.436Z,13.60
2017-05-24T19:09:15.338Z,13.70
2017-05-24T19:11:42.064Z,13.60
2017-05-24T19:14:08.795Z,13.70
2017-05-24T19:16:35.538Z,13.60
2017-05-24T19:19:02.238Z,13.60
2017-05-24T19:21:28.939Z,13.70
2017-05-24T19:23:55.700Z,13.60
2017-05-24T19:26:22.415Z,13.60
2017-05-24T19:28:49.121Z,13.50
2017-05-24T19:31:15.866Z,13.50
2017-05-24T19:33:42.558Z,13.60
2017-05-24T19:36:16.245Z,13.60
2017-05-24T19:38:42.960Z,13.60
2017-05-24T19:41:09.655Z,13.60
2017-05-24T19:43:51.418Z,13.60
2017-05-24T19:46:18.114Z,13.60
2017-05-24T19:48:44.846Z,13.70
2017-05-24T19:51:11.542Z,13.60
2017-05-24T19:53:38.241Z,13.70
2017-05-24T19:56:04.961Z,13.60
2017-05-24T19:58:31.681Z,13.60
2017-05-24T20:00:58.471Z,13.60
2017-05-24T20:03:25.210Z,13.60
2017-05-24T20:05:51.939Z,13.60
2017-05-24T20:08:18.690Z,13.60
2017-05-24T20:10:45.381Z,13.60
2017-05-24T20:13:12.074Z,13.60
2017-05-24T20:15:38.806Z,13.50
2017-05-24T20:18:05.691Z,13.40
2017-05-24T20:20:32.882Z,13.40
2017-05-24T20:22:59.569Z,13.40
2017-05-24T20:25:33.314Z,13.40
2017-05-24T20:28:00.022Z,13.50
2017-05-24T20:30:26.714Z,13.50
2017-05-24T20:32:53.477Z,13.60
2017-05-24T20:35:20.216Z,13.60
2017-05-24T20:37:46.913Z,13.60
2017-05-24T20:40:13.675Z,13.60
2017-05-24T20:42:40.375Z,13.60
2017-05-24T20:45:07.076Z,13.50
2017-05-24T20:47:33.830Z,13.50
2017-05-24T20:50:00.546Z,13.50
2017-05-24T20:52:27.278Z,13.50
2017-05-24T20:54:53.982Z,13.50
2017-05-24T20:57:20.757Z,13.50
2017-05-24T20:59:47.458Z,13.50
2017-05-24T21:02:14.159Z,13.40
2017-05-24T21:04:40.906Z,13.30
2017-05-24T21:07:07.594Z,13.30
2017-05-24T21:09:34.287Z,13.30
2017-05-24T21:12:01.010Z,13.20
2017-05-24T21:14:27.708Z,13.20
2017-05-24T21:16:54.406Z,13.20
2017-05-24T21:19:21.155Z,13.10
2017-05-24T21:21:47.854Z,13.10
2017-05-24T21:24:14.543Z,13.10
2017-05-24T21:26:41.302Z,13.10
2017-05-24T21:29:07.990Z,13.00
2017-05-24T21:31:34.723Z,12.90
2017-05-24T21:34:01.418Z,12.90
2017-05-24T21:36:28.114Z,12.80
2017-05-24T21:38:55.085Z,12.80
2017-05-24T21:41:21.799Z,12.80
2017-05-24T21:43:48.491Z,12.80
2017-05-24T21:46:15.233Z,12.90
2017-05-24T21:48:41.954Z,12.90
2017-05-24T21:51:08.647Z,12.90
2017-05-24T21:53:35.387Z,12.90
2017-05-24T21:56:02.086Z,12.90
2017-05-24T21:58:28.779Z,12.90
2017-05-24T22:00:55.543Z,12.80
2017-05-24T22:03:22.251Z,12.80
2017-05-24T22:05:48.948Z,12.90
2017-05-24T22:08:15.688Z,12.90
2017-05-24T22:10:42.420Z,12.90
2017-05-24T22:13:09.118Z,12.90
2017-05-24T22:15:35.866Z,12.90
2017-05-24T22:18:02.586Z,12.90
2017-05-24T22:20:29.275Z,13.00
2017-05-24T22:22:56.043Z,12.90
2017-05-24T22:25:22.770Z,12.90
2017-05-24T22:27:49.461Z,12.90
2017-05-24T22:30:16.242Z,13.00
2017-05-24T22:32:43.047Z,12.90
2017-05-24T22:35:09.739Z,12.90
2017-05-24T22:37:36.430Z,12.90
2017-05-24T22:40:03.167Z,12.90
2017-05-24T22:42:29.891Z,12.90
2017-05-24T22:44:56.594Z,13.00
2017-05-24T22:47:23.328Z,13.00
2017-05-24T22:49:50.055Z,13.00
2017-05-24T22:52:16.754Z,12.90
2017-05-24T22:54:43.502Z,12.90
2017-05-24T22:57:10.199Z,12.90
2017-05-24T22:59:36.904Z,12.90
2017-05-24T23:02:03.648Z,12.90
2017-05-24T23:04:30.338Z,12.80
2017-05-24T23:06:57.040Z,12.80
2017-05-24T23:09:23.787Z,12.70
2017-05-24T23:11:50.519Z,12.70
2017-05-24T23:14:17.215Z,12.60
2017-05-24T23:16:43.946Z,12.60
2017-05-24T23:19:10.637Z,12.60
2017-05-24T23:21:37.372Z,12.60
2017-05-24T23:24:04.086Z,12.50
2017-05-24T23:26:30.778Z,12.50
2017-05-24T23:28:57.518Z,12.40
2017-05-24T23:31:24.212Z,12.40
2017-05-24T23:33:50.906Z,12.40
2017-05-24T23:36:17.647Z,12.40
2017-05-24T23:38:44.351Z,12.40
2017-05-24T23:41:11.067Z,12.40
2017-05-24T23:43:37.808Z,12.40
2017-05-24T23:46:04.510Z,12.40
2017-05-24T23:48:31.203Z,12.50
2017-05-24T23:50:57.943Z,12.50
2017-05-24T23:53:24.642Z,12.50
2017-05-24T23:55:51.330Z,12.60
2017-05-24T23:58:18.088Z,12.50
